sensor_id;sensor_type;location;lat;lon;timestamp;P1;durP1;ratioP1;P2;durP2;ratioP2
4921;SDS011;16625;53.624;10.106;2022-08-04T12:46:29;6.70;;;2.53;;
4921;SDS011;16625;53.624;10.106;2022-08-04T12:48:59;3.50;;;2.70;;
4921;SDS011;16625;53.624;10.106;2022-08-04T12:51:35;7.78;;;2.80;;
4921;SDS011;16625;53.624;10.106;2022-08-04T12:54:04;4.28;;;2.53;;
4921;SDS011;16625;53.624;10.106;2022-08-04T12:56:34;4.45;;;2.53;;
4921;SDS011;16625;53.624;10.106;2022-08-04T12:59:02;6.00;;;2.58;;
4921;SDS011;16625;53.624;10.106;2022-08-04T13:01:33;4.20;;;3.10;;
4921;SDS011;16625;53.624;10.106;2022-08-04T13:04:02;6.40;;;2.65;;
4921;SDS011;16625;53.624;10.106;2022-08-04T13:06:35;3.63;;;2.75;;
4921;SDS011;16625;53.624;10.106;2022-08-04T13:12:26;6.43;;;2.95;;
4921;SDS011;16625;53.624;10.106;2022-08-04T13:14:57;4.03;;;2.55;;
4921;SDS011;16625;53.624;10.106;2022-08-04T13:17:41;3.35;;;2.85;;
4921;SDS011;16625;53.624;10.106;2022-08-04T13:20:14;7.13;;;2.72;;
4921;SDS011;16625;53.624;10.106;2022-08-04T13:22:42;8.77;;;3.25;;
4921;SDS011;16625;53.624;10.106;2022-08-04T13:25:10;6.68;;;2.78;;
4921;SDS011;16625;53.624;10.106;2022-08-04T13:27:37;5.53;;;2.60;;
4921;SDS011;16625;53.624;10.106;2022-08-04T13:30:11;7.20;;;3.35;;
4921;SDS011;16625;53.624;10.106;2022-08-04T13:32:38;5.10;;;3.10;;
4921;SDS011;16625;53.624;10.106;2022-08-04T13:35:08;4.47;;;2.95;;
4921;SDS011;16625;53.624;10.106;2022-08-04T13:37:38;3.45;;;2.33;;
4921;SDS011;16625;53.624;10.106;2022-08-04T13:40:09;3.95;;;2.75;;
4921;SDS011;16625;53.624;10.106;2022-08-04T13:42:38;4.28;;;2.67;;
4921;SDS011;16625;53.624;10.106;2022-08-04T13:45:07;3.75;;;2.50;;
4921;SDS011;16625;53.624;10.106;2022-08-04T13:47:35;6.97;;;3.08;;
4921;SDS011;16625;53.624;10.106;2022-08-04T13:50:04;5.70;;;2.53;;
4921;SDS011;16625;53.624;10.106;2022-08-04T13:52:36;4.28;;;2.60;;
4921;SDS011;16625;53.624;10.106;2022-08-04T13:55:04;3.83;;;2.67;;
4921;SDS011;16625;53.624;10.106;2022-08-04T13:57:34;3.15;;;2.35;;
4921;SDS011;16625;53.624;10.106;2022-08-04T14:00:09;5.95;;;3.03;;
4921;SDS011;16625;53.624;10.106;2022-08-04T14:02:38;5.90;;;3.05;;
4921;SDS011;16625;53.624;10.106;2022-08-04T14:05:14;6.85;;;2.50;;
4921;SDS011;16625;53.624;10.106;2022-08-04T14:07:45;7.70;;;3.00;;
4921;SDS011;16625;53.624;10.106;2022-08-04T14:10:16;5.72;;;2.70;;
4921;SDS011;16625;53.624;10.106;2022-08-04T14:12:43;5.25;;;2.97;;
4921;SDS011;16625;53.624;10.106;2022-08-04T14:21:01;10.57;;;2.60;;
4921;SDS011;16625;53.624;10.106;2022-08-04T14:23:36;3.47;;;2.70;;
4921;SDS011;16625;53.624;10.106;2022-08-04T14:26:18;3.38;;;2.78;;
4921;SDS011;16625;53.624;10.106;2022-08-04T14:28:47;4.32;;;2.50;;
4921;SDS011;16625;53.624;10.106;2022-08-04T14:31:15;6.82;;;2.97;;
4921;SDS011;16625;53.624;10.106;2022-08-04T14:33:44;4.05;;;3.42;;
4921;SDS011;16625;53.624;10.106;2022-08-04T14:36:14;4.82;;;2.70;;
4921;SDS011;16625;53.624;10.106;2022-08-04T14:38:47;5.82;;;3.10;;
4921;SDS011;16625;53.624;10.106;2022-08-04T14:41:43;3.83;;;2.55;;
4921;SDS011;16625;53.624;10.106;2022-08-04T14:44:10;5.07;;;2.63;;
4921;SDS011;16625;53.624;10.106;2022-08-04T14:46:48;4.78;;;2.70;;
4921;SDS011;16625;53.624;10.106;2022-08-04T14:49:15;7.65;;;2.80;;
4921;SDS011;16625;53.624;10.106;2022-08-04T14:51:45;3.88;;;2.75;;
4921;SDS011;16625;53.624;10.106;2022-08-04T14:54:23;5.70;;;2.63;;
4921;SDS011;16625;53.624;10.106;2022-08-04T14:56:53;4.18;;;2.85;;
4921;SDS011;16625;53.624;10.106;2022-08-04T14:59:21;6.85;;;3.22;;
4921;SDS011;16625;53.624;10.106;2022-08-04T15:01:50;8.57;;;3.53;;
4921;SDS011;16625;53.624;10.106;2022-08-04T15:04:18;5.65;;;3.30;;
4921;SDS011;16625;53.624;10.106;2022-08-04T15:06:49;10.88;;;3.40;;
4921;SDS011;16625;53.624;10.106;2022-08-04T15:09:19;7.20;;;3.58;;
4921;SDS011;16625;53.624;10.106;2022-08-04T15:11:47;5.20;;;3.00;;
4921;SDS011;16625;53.624;10.106;2022-08-04T15:14:14;5.82;;;3.08;;
4921;SDS011;16625;53.624;10.106;2022-08-04T15:16:41;10.48;;;3.38;;
4921;SDS011;16625;53.624;10.106;2022-08-04T15:19:08;10.45;;;3.42;;
4921;SDS011;16625;53.624;10.106;2022-08-04T15:21:35;12.60;;;3.83;;
4921;SDS011;16625;53.624;10.106;2022-08-04T15:24:04;9.57;;;4.68;;
4921;SDS011;16625;53.624;10.106;2022-08-04T15:26:32;9.68;;;3.53;;
4921;SDS011;16625;53.624;10.106;2022-08-04T15:29:06;18.42;;;4.22;;
4921;SDS011;16625;53.624;10.106;2022-08-04T15:31:38;11.68;;;4.53;;
4921;SDS011;16625;53.624;10.106;2022-08-04T15:34:07;12.45;;;4.85;;
4921;SDS011;16625;53.624;10.106;2022-08-04T15:36:37;6.35;;;3.85;;
4921;SDS011;16625;53.624;10.106;2022-08-04T15:39:15;14.90;;;4.50;;
4921;SDS011;16625;53.624;10.106;2022-08-04T15:41:56;14.00;;;4.03;;
4921;SDS011;16625;53.624;10.106;2022-08-04T15:44:45;11.93;;;4.82;;
4921;SDS011;16625;53.624;10.106;2022-08-04T15:47:24;13.95;;;4.70;;
4921;SDS011;16625;53.624;10.106;2022-08-04T15:50:02;17.50;;;5.03;;
4921;SDS011;16625;53.624;10.106;2022-08-04T15:55:32;10.25;;;4.05;;
4921;SDS011;16625;53.624;10.106;2022-08-04T15:58:01;8.68;;;4.85;;
4921;SDS011;16625;53.624;10.106;2022-08-04T16:00:45;17.15;;;5.55;;
4921;SDS011;16625;53.624;10.106;2022-08-04T16:03:45;20.02;;;4.18;;
4921;SDS011;16625;53.624;10.106;2022-08-04T16:09:06;16.30;;;3.83;;
4921;SDS011;16625;53.624;10.106;2022-08-04T16:11:37;7.35;;;4.43;;
4921;SDS011;16625;53.624;10.106;2022-08-04T16:14:07;14.25;;;4.55;;
4921;SDS011;16625;53.624;10.106;2022-08-04T16:16:46;8.90;;;4.00;;
4921;SDS011;16625;53.624;10.106;2022-08-04T16:19:20;11.35;;;4.05;;
4921;SDS011;16625;53.624;10.106;2022-08-04T16:21:54;8.15;;;3.88;;
4921;SDS011;16625;53.624;10.106;2022-08-04T16:24:26;7.05;;;3.42;;
4921;SDS011;16625;53.624;10.106;2022-08-04T16:26:56;7.55;;;4.72;;
4921;SDS011;16625;53.624;10.106;2022-08-04T16:29:34;16.70;;;4.25;;
4921;SDS011;16625;53.624;10.106;2022-08-04T16:32:13;8.63;;;4.53;;
4921;SDS011;16625;53.624;10.106;2022-08-04T16:34:48;11.32;;;4.93;;
4921;SDS011;16625;53.624;10.106;2022-08-04T16:37:20;14.50;;;4.50;;
4921;SDS011;16625;53.624;10.106;2022-08-04T16:39:48;15.77;;;3.90;;
4921;SDS011;16625;53.624;10.106;2022-08-04T16:42:29;9.88;;;3.90;;
4921;SDS011;16625;53.624;10.106;2022-08-04T16:44:58;13.30;;;4.50;;
4921;SDS011;16625;53.624;10.106;2022-08-04T16:50:27;8.35;;;4.30;;
4921;SDS011;16625;53.624;10.106;2022-08-04T16:52:55;9.63;;;3.58;;
4921;SDS011;16625;53.624;10.106;2022-08-04T16:55:23;8.70;;;3.85;;
4921;SDS011;16625;53.624;10.106;2022-08-04T16:57:53;9.38;;;4.18;;
4921;SDS011;16625;53.624;10.106;2022-08-04T17:00:30;6.63;;;3.75;;
4921;SDS011;16625;53.624;10.106;2022-08-04T17:03:00;12.00;;;5.18;;
4921;SDS011;16625;53.624;10.106;2022-08-04T17:05:27;15.57;;;4.38;;
4921;SDS011;16625;53.624;10.106;2022-08-04T17:07:55;9.80;;;4.97;;
4921;SDS011;16625;53.624;10.106;2022-08-04T17:10:31;9.90;;;4.63;;
4921;SDS011;16625;53.624;10.106;2022-08-04T17:13:01;8.63;;;4.22;;
4921;SDS011;16625;53.624;10.106;2022-08-04T17:15:46;10.52;;;4.93;;
4921;SDS011;16625;53.624;10.106;2022-08-04T17:18:14;7.25;;;4.47;;
4921;SDS011;16625;53.624;10.106;2022-08-04T17:20:43;13.43;;;4.32;;
4921;SDS011;16625;53.624;10.106;2022-08-04T17:23:28;14.70;;;4.20;;
4921;SDS011;16625;53.624;10.106;2022-08-04T17:25:58;9.68;;;4.60;;
4921;SDS011;16625;53.624;10.106;2022-08-04T17:28:28;7.07;;;4.22;;
4921;SDS011;16625;53.624;10.106;2022-08-04T17:30:56;12.07;;;4.55;;
4921;SDS011;16625;53.624;10.106;2022-08-04T17:33:25;13.93;;;5.05;;
4921;SDS011;16625;53.624;10.106;2022-08-04T17:35:54;10.18;;;4.95;;
4921;SDS011;16625;53.624;10.106;2022-08-04T17:38:30;9.82;;;4.22;;
4921;SDS011;16625;53.624;10.106;2022-08-04T17:41:03;9.88;;;4.40;;
4921;SDS011;16625;53.624;10.106;2022-08-04T17:46:25;7.97;;;3.50;;
4921;SDS011;16625;53.624;10.106;2022-08-04T17:48:57;15.10;;;4.15;;
4921;SDS011;16625;53.624;10.106;2022-08-04T17:51:34;11.93;;;4.15;;
4921;SDS011;16625;53.624;10.106;2022-08-04T17:54:03;8.40;;;3.58;;
4921;SDS011;16625;53.624;10.106;2022-08-04T17:56:32;8.50;;;4.15;;
4921;SDS011;16625;53.624;10.106;2022-08-04T17:59:09;9.63;;;3.78;;
4921;SDS011;16625;53.624;10.106;2022-08-04T18:01:46;7.35;;;3.75;;
4921;SDS011;16625;53.624;10.106;2022-08-04T18:04:33;10.90;;;3.25;;
4921;SDS011;16625;53.624;10.106;2022-08-04T18:07:08;8.82;;;3.55;;
4921;SDS011;16625;53.624;10.106;2022-08-04T18:09:37;5.07;;;3.22;;
4921;SDS011;16625;53.624;10.106;2022-08-04T18:12:07;12.18;;;4.05;;
4921;SDS011;16625;53.624;10.106;2022-08-04T18:14:39;6.57;;;3.40;;
4921;SDS011;16625;53.624;10.106;2022-08-04T18:17:10;11.50;;;3.55;;
4921;SDS011;16625;53.624;10.106;2022-08-04T18:19:48;6.95;;;3.72;;
4921;SDS011;16625;53.624;10.106;2022-08-04T18:22:17;6.10;;;3.65;;
4921;SDS011;16625;53.624;10.106;2022-08-04T18:24:44;8.32;;;4.20;;
4921;SDS011;16625;53.624;10.106;2022-08-04T18:27:11;6.38;;;3.55;;
4921;SDS011;16625;53.624;10.106;2022-08-04T18:29:40;6.93;;;3.30;;
4921;SDS011;16625;53.624;10.106;2022-08-04T18:32:07;6.88;;;3.47;;
4921;SDS011;16625;53.624;10.106;2022-08-04T18:34:36;10.18;;;3.55;;
4921;SDS011;16625;53.624;10.106;2022-08-04T18:37:03;7.72;;;3.00;;
4921;SDS011;16625;53.624;10.106;2022-08-04T18:39:31;7.80;;;3.55;;
4921;SDS011;16625;53.624;10.106;2022-08-04T18:41:59;7.95;;;3.03;;
4921;SDS011;16625;53.624;10.106;2022-08-04T18:44:26;14.07;;;3.60;;
4921;SDS011;16625;53.624;10.106;2022-08-04T18:46:56;8.02;;;3.80;;
4921;SDS011;16625;53.624;10.106;2022-08-04T18:49:24;6.05;;;3.72;;
4921;SDS011;16625;53.624;10.106;2022-08-04T18:51:51;7.45;;;3.63;;
4921;SDS011;16625;53.624;10.106;2022-08-04T18:54:19;8.95;;;3.88;;
4921;SDS011;16625;53.624;10.106;2022-08-04T18:56:48;9.95;;;3.85;;
4921;SDS011;16625;53.624;10.106;2022-08-04T18:59:16;11.75;;;4.43;;
4921;SDS011;16625;53.624;10.106;2022-08-04T19:01:44;8.25;;;3.47;;
4921;SDS011;16625;53.624;10.106;2022-08-04T19:04:15;15.93;;;3.50;;
4921;SDS011;16625;53.624;10.106;2022-08-04T19:06:44;7.38;;;3.90;;
4921;SDS011;16625;53.624;10.106;2022-08-04T19:09:12;4.93;;;3.17;;
4921;SDS011;16625;53.624;10.106;2022-08-04T19:11:39;10.90;;;4.63;;
4921;SDS011;16625;53.624;10.106;2022-08-04T19:14:06;4.65;;;3.83;;
4921;SDS011;16625;53.624;10.106;2022-08-04T19:16:33;11.77;;;4.35;;
4921;SDS011;16625;53.624;10.106;2022-08-04T19:19:03;8.15;;;3.28;;
4921;SDS011;16625;53.624;10.106;2022-08-04T19:21:32;9.98;;;3.78;;
4921;SDS011;16625;53.624;10.106;2022-08-04T19:24:00;6.68;;;3.38;;
4921;SDS011;16625;53.624;10.106;2022-08-04T19:26:26;5.78;;;2.78;;
4921;SDS011;16625;53.624;10.106;2022-08-04T19:28:53;17.55;;;4.15;;
4921;SDS011;16625;53.624;10.106;2022-08-04T19:31:21;7.30;;;3.80;;
4921;SDS011;16625;53.624;10.106;2022-08-04T19:33:49;7.85;;;3.95;;
4921;SDS011;16625;53.624;10.106;2022-08-04T19:36:16;7.10;;;3.78;;
4921;SDS011;16625;53.624;10.106;2022-08-04T19:38:45;8.07;;;4.18;;
4921;SDS011;16625;53.624;10.106;2022-08-04T19:41:12;11.18;;;3.85;;
4921;SDS011;16625;53.624;10.106;2022-08-04T19:43:39;8.02;;;4.63;;
4921;SDS011;16625;53.624;10.106;2022-08-04T19:46:15;6.53;;;4.57;;
4921;SDS011;16625;53.624;10.106;2022-08-04T19:48:42;6.82;;;4.53;;
4921;SDS011;16625;53.624;10.106;2022-08-04T19:51:09;11.13;;;4.40;;
4921;SDS011;16625;53.624;10.106;2022-08-04T19:53:46;10.27;;;4.18;;
4921;SDS011;16625;53.624;10.106;2022-08-04T19:56:13;6.03;;;4.00;;
4921;SDS011;16625;53.624;10.106;2022-08-04T19:58:41;10.52;;;4.30;;
4921;SDS011;16625;53.624;10.106;2022-08-04T20:01:08;8.18;;;4.28;;
4921;SDS011;16625;53.624;10.106;2022-08-04T20:03:35;8.70;;;4.22;;
4921;SDS011;16625;53.624;10.106;2022-08-04T20:06:02;11.30;;;4.20;;
4921;SDS011;16625;53.624;10.106;2022-08-04T20:08:30;7.25;;;4.53;;
4921;SDS011;16625;53.624;10.106;2022-08-04T20:10:59;5.57;;;3.83;;
4921;SDS011;16625;53.624;10.106;2022-08-04T20:13:27;7.88;;;4.47;;
4921;SDS011;16625;53.624;10.106;2022-08-04T20:15:55;10.32;;;4.35;;
4921;SDS011;16625;53.624;10.106;2022-08-04T20:18:23;6.18;;;3.60;;
4921;SDS011;16625;53.624;10.106;2022-08-04T20:20:51;6.70;;;3.87;;
4921;SDS011;16625;53.624;10.106;2022-08-04T20:23:18;7.88;;;4.43;;
4921;SDS011;16625;53.624;10.106;2022-08-04T20:25:45;6.93;;;3.35;;
4921;SDS011;16625;53.624;10.106;2022-08-04T20:28:14;9.07;;;3.58;;
4921;SDS011;16625;53.624;10.106;2022-08-04T20:30:42;5.70;;;3.53;;
4921;SDS011;16625;53.624;10.106;2022-08-04T20:33:11;8.07;;;3.90;;
4921;SDS011;16625;53.624;10.106;2022-08-04T20:35:38;6.18;;;3.83;;
4921;SDS011;16625;53.624;10.106;2022-08-04T20:38:05;7.70;;;4.13;;
4921;SDS011;16625;53.624;10.106;2022-08-04T20:40:32;8.52;;;3.63;;
4921;SDS011;16625;53.624;10.106;2022-08-04T20:43:00;8.50;;;3.37;;
4921;SDS011;16625;53.624;10.106;2022-08-04T20:45:33;8.37;;;4.63;;
4921;SDS011;16625;53.624;10.106;2022-08-04T20:48:00;6.67;;;3.83;;
4921;SDS011;16625;53.624;10.106;2022-08-04T20:50:27;6.20;;;3.90;;
4921;SDS011;16625;53.624;10.106;2022-08-04T20:52:54;11.80;;;3.50;;
4921;SDS011;16625;53.624;10.106;2022-08-04T20:55:21;10.53;;;3.93;;
4921;SDS011;16625;53.624;10.106;2022-08-04T20:57:48;7.50;;;3.53;;
4921;SDS011;16625;53.624;10.106;2022-08-04T21:00:15;5.50;;;3.07;;
4921;SDS011;16625;53.624;10.106;2022-08-04T21:02:44;6.50;;;3.87;;
4921;SDS011;16625;53.624;10.106;2022-08-04T21:05:11;8.60;;;3.40;;
4921;SDS011;16625;53.624;10.106;2022-08-04T21:07:38;9.03;;;3.70;;
4921;SDS011;16625;53.624;10.106;2022-08-04T21:10:05;5.10;;;4.10;;
4921;SDS011;16625;53.624;10.106;2022-08-04T21:12:32;5.00;;;3.67;;
4921;SDS011;16625;53.624;10.106;2022-08-04T21:15:00;8.63;;;4.33;;
4921;SDS011;16625;53.624;10.106;2022-08-04T21:17:27;13.47;;;5.07;;
4921;SDS011;16625;53.624;10.106;2022-08-04T21:19:56;12.30;;;6.10;;
4921;SDS011;16625;53.624;10.106;2022-08-04T21:22:37;13.67;;;5.70;;
4921;SDS011;16625;53.624;10.106;2022-08-04T21:25:07;9.77;;;6.80;;
4921;SDS011;16625;53.624;10.106;2022-08-04T21:27:34;15.10;;;6.87;;
4921;SDS011;16625;53.624;10.106;2022-08-04T21:30:02;16.27;;;8.07;;
4921;SDS011;16625;53.624;10.106;2022-08-04T21:32:33;16.40;;;8.40;;
4921;SDS011;16625;53.624;10.106;2022-08-04T21:35:01;19.43;;;8.40;;
4921;SDS011;16625;53.624;10.106;2022-08-04T21:37:29;21.30;;;7.07;;
4921;SDS011;16625;53.624;10.106;2022-08-04T21:39:57;14.93;;;7.13;;
4921;SDS011;16625;53.624;10.106;2022-08-04T21:42:23;18.03;;;7.90;;
4921;SDS011;16625;53.624;10.106;2022-08-04T21:44:50;21.93;;;8.13;;
4921;SDS011;16625;53.624;10.106;2022-08-04T21:47:17;28.20;;;8.90;;
4921;SDS011;16625;53.624;10.106;2022-08-04T21:49:46;15.63;;;9.07;;
4921;SDS011;16625;53.624;10.106;2022-08-04T21:52:15;16.10;;;10.00;;
4921;SDS011;16625;53.624;10.106;2022-08-04T21:54:43;20.70;;;11.10;;
4921;SDS011;16625;53.624;10.106;2022-08-04T21:57:12;28.67;;;12.67;;
4921;SDS011;16625;53.624;10.106;2022-08-04T21:59:39;19.37;;;10.90;;
4921;SDS011;16625;53.624;10.106;2022-08-04T22:02:06;24.80;;;11.40;;
4921;SDS011;16625;53.624;10.106;2022-08-04T22:04:33;27.87;;;10.80;;
4921;SDS011;16625;53.624;10.106;2022-08-04T22:07:00;19.63;;;11.13;;
4921;SDS011;16625;53.624;10.106;2022-08-04T22:09:32;26.13;;;11.20;;
4921;SDS011;16625;53.624;10.106;2022-08-04T22:12:08;26.80;;;12.60;;
4921;SDS011;16625;53.624;10.106;2022-08-04T22:14:35;26.37;;;11.93;;
4921;SDS011;16625;53.624;10.106;2022-08-04T22:17:03;26.87;;;11.40;;
4921;SDS011;16625;53.624;10.106;2022-08-04T22:19:31;23.33;;;11.50;;
4921;SDS011;16625;53.624;10.106;2022-08-04T22:21:58;27.63;;;11.27;;
4921;SDS011;16625;53.624;10.106;2022-08-04T22:24:25;21.57;;;11.60;;
4921;SDS011;16625;53.624;10.106;2022-08-04T22:26:54;23.50;;;11.23;;
4921;SDS011;16625;53.624;10.106;2022-08-04T22:29:22;26.17;;;11.80;;
4921;SDS011;16625;53.624;10.106;2022-08-04T22:31:49;33.03;;;11.90;;
4921;SDS011;16625;53.624;10.106;2022-08-04T22:34:16;32.40;;;10.43;;
4921;SDS011;16625;53.624;10.106;2022-08-04T22:36:43;28.70;;;12.30;;
4921;SDS011;16625;53.624;10.106;2022-08-04T22:39:11;29.50;;;11.60;;
4921;SDS011;16625;53.624;10.106;2022-08-04T22:41:38;30.77;;;11.00;;
4921;SDS011;16625;53.624;10.106;2022-08-04T22:44:08;22.30;;;11.40;;
4921;SDS011;16625;53.624;10.106;2022-08-04T22:46:35;27.03;;;12.30;;
4921;SDS011;16625;53.624;10.106;2022-08-04T22:49:02;33.07;;;12.00;;
4921;SDS011;16625;53.624;10.106;2022-08-04T22:51:29;24.80;;;11.27;;
4921;SDS011;16625;53.624;10.106;2022-08-04T22:53:56;24.80;;;11.43;;
4921;SDS011;16625;53.624;10.106;2022-08-04T22:56:23;36.30;;;10.50;;
4921;SDS011;16625;53.624;10.106;2022-08-04T22:58:50;28.80;;;12.40;;
4921;SDS011;16625;53.624;10.106;2022-08-04T23:01:19;28.23;;;11.83;;
4921;SDS011;16625;53.624;10.106;2022-08-04T23:03:45;19.40;;;10.57;;
4921;SDS011;16625;53.624;10.106;2022-08-04T23:06:12;25.47;;;10.13;;
4921;SDS011;16625;53.624;10.106;2022-08-04T23:08:39;28.90;;;13.37;;
4921;SDS011;16625;53.624;10.106;2022-08-04T23:11:06;22.23;;;11.30;;
4921;SDS011;16625;53.624;10.106;2022-08-04T23:13:34;16.73;;;9.47;;
4921;SDS011;16625;53.624;10.106;2022-08-04T23:16:02;24.17;;;10.67;;
4921;SDS011;16625;53.624;10.106;2022-08-04T23:18:31;20.27;;;10.73;;
4921;SDS011;16625;53.624;10.106;2022-08-04T23:20:58;30.70;;;11.33;;
4921;SDS011;16625;53.624;10.106;2022-08-04T23:23:25;17.80;;;10.20;;
4921;SDS011;16625;53.624;10.106;2022-08-04T23:25:52;24.17;;;11.00;;
4921;SDS011;16625;53.624;10.106;2022-08-04T23:28:19;20.63;;;11.00;;
4921;SDS011;16625;53.624;10.106;2022-08-04T23:30:45;22.50;;;11.70;;
4921;SDS011;16625;53.624;10.106;2022-08-04T23:33:12;36.30;;;13.33;;
4921;SDS011;16625;53.624;10.106;2022-08-04T23:35:41;21.87;;;10.47;;
4921;SDS011;16625;53.624;10.106;2022-08-04T23:38:07;32.27;;;13.07;;
4921;SDS011;16625;53.624;10.106;2022-08-04T23:40:35;23.80;;;12.23;;
4921;SDS011;16625;53.624;10.106;2022-08-04T23:43:02;26.60;;;11.80;;
4921;SDS011;16625;53.624;10.106;2022-08-04T23:45:30;21.60;;;10.37;;
4921;SDS011;16625;53.624;10.106;2022-08-04T23:47:57;27.10;;;13.30;;
4921;SDS011;16625;53.624;10.106;2022-08-04T23:50:24;23.83;;;10.67;;
4921;SDS011;16625;53.624;10.106;2022-08-04T23:52:52;20.83;;;10.03;;
4921;SDS011;16625;53.624;10.106;2022-08-04T23:55:20;41.53;;;12.17;;
4921;SDS011;16625;53.624;10.106;2022-08-04T23:57:47;21.73;;;10.17;;
